Fredricktwn, Ohio
Current Conditions -  °F | °C
As of 6:15 PM on Thursday 20 Nov 2014 (Local Time) from K4I3 Reporting Station
Scattered Clouds Scattered Clouds  
Wind Chill: 15°   Ceiling: Unl
Heat Index: 25°   Visibility: 10mi
Dew Point: 16°   Wind: 10mph
Humidity: 69%   Direction: 260°W
Pressure: 30.08"   Gusts: 16mph
Location:  40.4945°N, 82.5786°W
Report Text: K4I3 202315Z AUTO 26009G14KT 10SM SCT035 SCT045 SCT050 M04/M09 A3008 RMK AO2
Loading
Personal Weather Stations






























Interactive Weather Map New forecast layout! Learn more

10-Day Weather Forecast

Advertisements
Track Severe Weather on mobile